Time;durP1;ratioP1;P1;durP2;ratioP2;P2;SDS_P1;SDS_P2;PMS_P1;PMS_P2;Temp;Humidity;BMP_temperature;BMP_pressure;BME280_temperature;BME280_humidity;BME280_pressure;Samples;Min_cycle;Max_cycle;Signal;HPM_P1;HPM_P2
2023/06/08 20:19:11;;;;;;;;;14.33;12.00;;;;;;;;116225;1195;23369;-59
2023/06/08 20:21:41;;;;;;;;;13.67;10.00;;;;;;;;117154;1196;25194;-58
2023/06/08 20:24:10;;;;;;;;;11.00;8.50;;;;;;;;117342;1182;25418;-58
2023/06/08 20:26:41;;;;;;;;;11.00;9.67;;;;;;;;117141;1187;25564;-59
2023/06/08 20:29:10;;;;;;;;;11.67;8.33;;;;;;;;117380;1187;25527;-59
2023/06/08 20:31:39;;;;;;;;;7.00;6.00;;;;;;;;117360;1184;25086;-58
2023/06/08 20:34:10;;;;;;;;;13.00;9.00;;;;;;;;117102;1190;24931;-59
2023/06/08 20:36:38;;;;;;;;;8.00;8.00;;;;;;;;117310;1183;25050;-60
2023/06/08 20:39:07;;;;;;;;;11.25;9.00;;;;;;;;117110;1186;24759;-61
2023/06/08 20:41:37;;;;;;;;;12.50;10.00;;;;;;;;117379;1196;25192;-60
2023/06/08 20:44:06;;;;;;;;;13.00;11.00;;;;;;;;117359;1196;25109;-60
2023/06/08 20:46:35;;;;;;;;;12.00;10.25;;;;;;;;117133;1184;24947;-61
2023/06/08 20:49:04;;;;;;;;;15.00;11.50;;;;;;;;117402;1182;24789;-60
2023/06/08 20:51:33;;;;;;;;;12.00;9.50;;;;;;;;117365;1196;25391;-61
2023/06/08 20:54:02;;;;;;;;;12.33;10.33;;;;;;;;117417;1183;24820;-61
2023/06/08 20:56:31;;;;;;;;;12.33;10.67;;;;;;;;117408;1183;25238;-61
2023/06/08 20:58:59;;;;;;;;;12.33;10.33;;;;;;;;117305;1183;25713;-61
2023/06/08 21:01:28;;;;;;;;;10.75;9.50;;;;;;;;117144;1196;25169;-61
2023/06/08 21:03:58;;;;;;;;;10.00;9.50;;;;;;;;117130;1195;24977;-61
2023/06/08 21:06:27;;;;;;;;;12.33;10.33;;;;;;;;117405;1183;25138;-61
2023/06/08 21:08:55;;;;;;;;;7.50;6.25;;;;;;;;117382;1190;24741;-61
2023/06/08 21:11:24;;;;;;;;;7.00;7.00;;;;;;;;118136;1188;25530;-61
2023/06/08 21:13:53;;;;;;;;;8.75;7.75;;;;;;;;117865;1177;25075;-60
2023/06/08 21:16:22;;;;;;;;;12.67;9.33;;;;;;;;117853;1180;25491;-60
2023/06/08 21:18:51;;;;;;;;;8.67;6.67;;;;;;;;117838;1187;25264;-60
2023/06/08 21:21:19;;;;;;;;;9.33;9.00;;;;;;;;117857;1191;25519;-61
2023/06/08 21:23:48;;;;;;;;;8.75;6.75;;;;;;;;119875;1190;25678;-61
2023/06/08 21:26:16;;;;;;;;;10.50;8.50;;;;;;;;119888;1183;24979;-62
2023/06/08 21:28:44;;;;;;;;;8.33;8.33;;;;;;;;119895;1191;25332;-63
2023/06/08 21:31:13;;;;;;;;;9.33;6.00;;;;;;;;119894;1191;25732;-62
2023/06/08 21:33:41;;;;;;;;;5.50;5.50;;;;;;;;118330;1183;25269;-62
2023/06/08 21:36:11;;;;;;;;;8.25;7.25;;;;;;;;117873;1189;25396;-63
2023/06/08 21:38:40;;;;;;;;;10.00;9.00;;;;;;;;117943;1190;25289;-63
2023/06/08 21:41:09;;;;;;;;;7.33;7.33;;;;;;;;117951;1179;25676;-62
2023/06/08 21:43:37;;;;;;;;;11.00;9.50;;;;;;;;117939;1190;25587;-59
2023/06/08 21:46:06;;;;;;;;;6.25;6.25;;;;;;;;117952;1186;25094;-62
2023/06/08 21:48:35;;;;;;;;;11.50;8.00;;;;;;;;117960;1180;25465;-62
2023/06/08 21:51:04;;;;;;;;;10.00;9.25;;;;;;;;117954;1190;25385;-62
2023/06/08 21:53:33;;;;;;;;;10.00;10.00;;;;;;;;117936;1177;24863;-59
2023/06/08 21:56:01;;;;;;;;;7.50;6.00;;;;;;;;117995;1184;25136;-61
2023/06/08 21:58:30;;;;;;;;;6.75;6.75;;;;;;;;117937;1177;25408;-61
2023/06/08 22:00:58;;;;;;;;;9.00;9.00;;;;;;;;117914;1179;25323;-60
2023/06/08 22:03:27;;;;;;;;;12.00;9.50;;;;;;;;117911;1190;24733;-61
2023/06/08 22:05:57;;;;;;;;;8.67;8.67;;;;;;;;117964;1178;26021;-61
2023/06/08 22:08:25;;;;;;;;;11.00;9.67;;;;;;;;117939;1178;25551;-61
2023/06/08 22:10:54;;;;;;;;;9.33;9.33;;;;;;;;117957;1177;25877;-61
2023/06/08 22:13:24;;;;;;;;;10.50;7.50;;;;;;;;117968;1184;25681;-60
2023/06/08 22:15:53;;;;;;;;;7.67;7.00;;;;;;;;117955;1177;24972;-62
2023/06/08 22:18:21;;;;;;;;;9.33;8.33;;;;;;;;117939;1187;25377;-61
2023/06/08 22:20:53;;;;;;;;;9.00;8.67;;;;;;;;117958;1177;25475;-62
2023/06/08 22:23:22;;;;;;;;;8.00;8.00;;;;;;;;117907;1190;25380;-60
2023/06/08 22:25:51;;;;;;;;;9.33;9.33;;;;;;;;117927;1187;25319;-61
2023/06/08 22:28:20;;;;;;;;;9.00;6.67;;;;;;;;117942;1190;24885;-61
2023/06/08 22:30:49;;;;;;;;;12.50;10.75;;;;;;;;117958;1178;24939;-61
2023/06/08 22:33:18;;;;;;;;;7.33;7.33;;;;;;;;117957;1177;25433;-61
2023/06/08 22:35:48;;;;;;;;;8.67;8.33;;;;;;;;117982;1183;24748;-61
2023/06/08 22:38:17;;;;;;;;;7.33;6.33;;;;;;;;117872;1179;24803;-61
2023/06/08 22:40:45;;;;;;;;;9.50;9.50;;;;;;;;117811;1190;25526;-61
2023/06/08 22:43:14;;;;;;;;;11.75;10.00;;;;;;;;117898;1177;25373;-61
2023/06/08 22:45:43;;;;;;;;;11.33;9.33;;;;;;;;117956;1190;25247;-61
2023/06/08 22:48:11;;;;;;;;;10.50;7.50;;;;;;;;117821;1190;25200;-61
2023/06/08 22:50:40;;;;;;;;;9.50;9.00;;;;;;;;117801;1177;25281;-61
2023/06/08 22:53:12;;;;;;;;;11.33;8.00;;;;;;;;117805;1180;24881;-61
2023/06/08 22:55:41;;;;;;;;;8.33;7.67;;;;;;;;117802;1191;25577;-61
2023/06/08 22:58:10;;;;;;;;;8.00;8.00;;;;;;;;117812;1178;25326;-61
2023/06/08 23:00:41;;;;;;;;;11.00;11.00;;;;;;;;117883;1177;24860;-62
2023/06/08 23:03:10;;;;;;;;;8.67;8.67;;;;;;;;117923;1187;24919;-63
2023/06/08 23:05:38;;;;;;;;;14.50;7.50;;;;;;;;117930;1177;24830;-63
2023/06/08 23:08:07;;;;;;;;;11.50;8.50;;;;;;;;117863;1179;25522;-61
2023/06/08 23:10:36;;;;;;;;;9.00;7.00;;;;;;;;117996;1177;25067;-61
2023/06/08 23:13:05;;;;;;;;;11.50;9.50;;;;;;;;117964;1187;24916;-61
2023/06/08 23:15:34;;;;;;;;;11.00;9.00;;;;;;;;117924;1177;25538;-61
2023/06/08 23:18:03;;;;;;;;;9.00;8.00;;;;;;;;117924;1177;24782;-61
2023/06/08 23:20:31;;;;;;;;;8.33;8.33;;;;;;;;117983;1178;25179;-61
2023/06/08 23:23:00;;;;;;;;;6.50;6.50;;;;;;;;117952;1190;24956;-61
2023/06/08 23:25:29;;;;;;;;;9.00;8.50;;;;;;;;117921;1177;25062;-61
2023/06/08 23:27:58;;;;;;;;;12.67;11.67;;;;;;;;117953;1183;25497;-61
2023/06/08 23:30:27;;;;;;;;;10.50;8.50;;;;;;;;117949;1181;24977;-62
2023/06/08 23:32:55;;;;;;;;;10.50;8.50;;;;;;;;117989;1177;25585;-61
2023/06/08 23:35:24;;;;;;;;;12.00;11.33;;;;;;;;117938;1177;24846;-61
2023/06/08 23:37:53;;;;;;;;;8.33;8.33;;;;;;;;117841;1177;25611;-64
2023/06/08 23:40:21;;;;;;;;;8.67;8.33;;;;;;;;117865;1190;25526;-71
2023/06/08 23:42:50;;;;;;;;;10.25;8.00;;;;;;;;117908;1177;25128;-72
2023/06/08 23:45:19;;;;;;;;;12.00;8.50;;;;;;;;117932;1177;24888;-70
2023/06/08 23:47:49;;;;;;;;;8.67;8.67;;;;;;;;117979;1177;25336;-61
2023/06/08 23:50:17;;;;;;;;;10.50;10.50;;;;;;;;117959;1177;25538;-59
2023/06/08 23:52:46;;;;;;;;;11.00;9.67;;;;;;;;117892;1191;25687;-61
2023/06/08 23:55:15;;;;;;;;;12.25;11.00;;;;;;;;117941;1177;25078;-62
2023/06/08 23:57:43;;;;;;;;;10.00;10.00;;;;;;;;117917;1191;25012;-62
